Time;durP1;ratioP1;P1;durP2;ratioP2;P2;SDS_P1;SDS_P2;PMS_P1;PMS_P2;Temp;Humidity;BMP_temperature;BMP_pressure;BME280_temperature;BME280_humidity;BME280_pressure;Samples;Min_cycle;Max_cycle;Signal;HPM_P1;HPM_P2
2022/03/16 00:01:16;;;;;;;2.45;1.95;;;;;;;;;;4213266;28;20089;-36
2022/03/16 00:03:17;;;;;;;1.98;1.83;;;;;;;;;;4212677;28;20182;-36
2022/03/16 00:05:19;;;;;;;1.77;1.60;;;;;;;;;;4213107;28;20387;-36
2022/03/16 00:07:20;;;;;;;2.40;1.77;;;;;;;;;;4212967;28;20055;-36
2022/03/16 00:09:21;;;;;;;2.08;1.88;;;;;;;;;;4213403;28;20047;-36
2022/03/16 00:11:22;;;;;;;1.95;1.70;;;;;;;;;;4212910;28;20066;-36
2022/03/16 00:13:23;;;;;;;2.28;1.73;;;;;;;;;;4213331;28;20197;-35
2022/03/16 00:15:25;;;;;;;1.60;1.50;;;;;;;;;;4212700;28;20087;-35
2022/03/16 00:17:26;;;;;;;2.00;1.70;;;;;;;;;;4212599;28;20052;-36
2022/03/16 00:19:27;;;;;;;3.95;2.38;;;;;;;;;;4213102;28;20556;-35
2022/03/16 00:21:28;;;;;;;2.58;1.65;;;;;;;;;;4213104;28;20093;-35
2022/03/16 00:23:29;;;;;;;2.25;1.73;;;;;;;;;;4213098;28;20108;-36
2022/03/16 00:25:29;;;;;;;2.00;1.80;;;;;;;;;;4213038;28;20094;-35
2022/03/16 00:27:30;;;;;;;1.80;1.50;;;;;;;;;;4212943;28;20104;-36
2022/03/16 00:29:31;;;;;;;1.88;1.60;;;;;;;;;;4212912;28;20087;-35
2022/03/16 00:31:34;;;;;;;2.50;1.80;;;;;;;;;;4211894;28;20048;-35
2022/03/16 00:33:35;;;;;;;1.88;1.77;;;;;;;;;;4212356;28;20043;-36
2022/03/16 00:35:36;;;;;;;2.03;1.83;;;;;;;;;;4212774;28;20095;-35
2022/03/16 00:37:36;;;;;;;2.20;2.00;;;;;;;;;;4212690;28;20094;-35
2022/03/16 00:39:37;;;;;;;2.00;1.80;;;;;;;;;;4211556;28;20131;-35
2022/03/16 00:41:38;;;;;;;1.80;1.70;;;;;;;;;;4212906;28;20145;-35
2022/03/16 00:43:39;;;;;;;2.70;1.90;;;;;;;;;;4212640;28;20437;-35
2022/03/16 00:45:40;;;;;;;2.25;1.92;;;;;;;;;;4213019;28;20047;-35
2022/03/16 00:47:42;;;;;;;2.20;2.00;;;;;;;;;;4212229;28;20056;-35
2022/03/16 00:49:43;;;;;;;2.10;1.90;;;;;;;;;;4211442;28;20052;-36
2022/03/16 00:51:44;;;;;;;2.25;1.67;;;;;;;;;;4212796;28;20148;-36
2022/03/16 00:53:45;;;;;;;1.77;1.60;;;;;;;;;;4212590;28;20094;-37
2022/03/16 00:55:46;;;;;;;2.33;1.67;;;;;;;;;;4212792;28;20051;-36
2022/03/16 00:57:47;;;;;;;1.83;1.50;;;;;;;;;;4212735;28;20058;-36
2022/03/16 00:59:48;;;;;;;2.20;1.70;;;;;;;;;;4211808;28;20374;-38
2022/03/16 01:01:49;;;;;;;1.85;1.48;;;;;;;;;;4212456;28;20074;-37
2022/03/16 01:03:50;;;;;;;2.13;1.67;;;;;;;;;;4212974;28;20055;-36
2022/03/16 01:05:51;;;;;;;2.15;1.90;;;;;;;;;;4211644;28;20579;-36
2022/03/16 01:07:52;;;;;;;3.13;1.77;;;;;;;;;;4212566;28;20396;-37
2022/03/16 01:09:52;;;;;;;2.03;1.77;;;;;;;;;;4212437;28;20087;-36
2022/03/16 01:11:53;;;;;;;2.08;1.63;;;;;;;;;;4212414;28;20081;-36
2022/03/16 01:13:55;;;;;;;1.73;1.63;;;;;;;;;;4211355;28;20094;-36
2022/03/16 01:15:56;;;;;;;2.10;1.80;;;;;;;;;;4211377;28;20070;-36
2022/03/16 01:17:57;;;;;;;1.95;1.75;;;;;;;;;;4212072;28;20097;-37
2022/03/16 01:19:59;;;;;;;2.45;1.75;;;;;;;;;;4211752;28;20048;-37
2022/03/16 01:22:01;;;;;;;2.13;1.45;;;;;;;;;;4212568;28;20157;-37
2022/03/16 01:24:04;;;;;;;1.73;1.50;;;;;;;;;;4211163;28;20415;-36
2022/03/16 01:26:05;;;;;;;1.65;1.38;;;;;;;;;;4214195;28;20074;-36
2022/03/16 01:28:06;;;;;;;2.05;1.85;;;;;;;;;;4215566;28;20552;-37
2022/03/16 01:30:07;;;;;;;1.90;1.50;;;;;;;;;;4215567;28;20098;-37
2022/03/16 01:32:08;;;;;;;2.10;1.73;;;;;;;;;;4213829;28;20141;-36
2022/03/16 01:34:09;;;;;;;1.70;1.60;;;;;;;;;;4215425;28;20044;-37
2022/03/16 01:36:10;;;;;;;1.90;1.73;;;;;;;;;;4214233;28;20561;-36
2022/03/16 01:38:13;;;;;;;1.92;1.80;;;;;;;;;;4214007;28;20047;-36
2022/03/16 01:40:14;;;;;;;1.95;1.70;;;;;;;;;;4215669;28;20105;-36
2022/03/16 01:42:15;;;;;;;2.00;1.80;;;;;;;;;;4215339;28;20052;-36
2022/03/16 01:44:15;;;;;;;2.53;1.83;;;;;;;;;;4215328;28;20374;-36
2022/03/16 01:46:17;;;;;;;2.55;1.90;;;;;;;;;;4214185;28;20067;-36
2022/03/16 01:48:19;;;;;;;2.05;1.70;;;;;;;;;;4214643;28;20052;-36
2022/03/16 01:50:20;;;;;;;2.15;1.92;;;;;;;;;;4215175;28;20487;-37
2022/03/16 01:52:22;;;;;;;2.25;1.75;;;;;;;;;;4215174;28;20139;-36
2022/03/16 01:54:23;;;;;;;1.95;1.48;;;;;;;;;;4213718;28;20059;-36
2022/03/16 01:56:24;;;;;;;2.15;1.70;;;;;;;;;;4215116;28;20071;-36
2022/03/16 01:58:24;;;;;;;1.50;1.40;;;;;;;;;;4213788;28;20056;-36
2022/03/16 02:00:27;;;;;;;2.10;1.77;;;;;;;;;;4213876;28;20077;-36
2022/03/16 02:02:28;;;;;;;2.63;2.00;;;;;;;;;;4213512;28;20040;-36
2022/03/16 02:04:29;;;;;;;1.95;1.70;;;;;;;;;;4215027;28;20571;-36
2022/03/16 02:06:30;;;;;;;1.67;1.50;;;;;;;;;;4215046;28;20379;-36
2022/03/16 02:08:32;;;;;;;2.20;1.52;;;;;;;;;;4214710;28;20090;-36
2022/03/16 02:10:34;;;;;;;2.08;1.65;;;;;;;;;;4214878;28;20579;-36
2022/03/16 02:12:43;;;;;;;1.75;1.42;;;;;;;;;;4214924;28;20109;-36
2022/03/16 02:14:44;;;;;;;;;;;;;;;;;;4215327;28;20376;-36
2022/03/16 02:16:46;;;;;;;2.80;1.63;;;;;;;;;;4213529;28;19923;-36
2022/03/16 02:18:47;;;;;;;1.75;1.58;;;;;;;;;;4215304;28;20122;-36
2022/03/16 02:20:49;;;;;;;1.60;1.50;;;;;;;;;;4215004;28;20532;-36
2022/03/16 02:22:56;;;;;;;2.03;1.58;;;;;;;;;;4213449;28;20052;-36
2022/03/16 02:24:57;;;;;;;2.03;1.75;;;;;;;;;;4215082;28;20068;-36
2022/03/16 02:26:58;;;;;;;1.50;1.40;;;;;;;;;;4214472;28;20409;-37
2022/03/16 02:28:59;;;;;;;1.50;1.40;;;;;;;;;;4214716;28;20192;-36
2022/03/16 02:31:00;;;;;;;1.85;1.70;;;;;;;;;;4214899;28;20039;-37
2022/03/16 02:33:01;;;;;;;1.67;1.58;;;;;;;;;;4214261;28;20090;-36
2022/03/16 02:35:02;;;;;;;1.67;1.58;;;;;;;;;;4214616;28;20048;-36
2022/03/16 02:37:03;;;;;;;1.63;1.40;;;;;;;;;;4213875;28;20071;-36
2022/03/16 02:39:04;;;;;;;1.75;1.65;;;;;;;;;;4214603;28;20052;-36
2022/03/16 02:41:05;;;;;;;1.77;1.67;;;;;;;;;;4214690;28;20113;-36
2022/03/16 02:43:06;;;;;;;1.98;1.67;;;;;;;;;;4214479;28;20054;-36
2022/03/16 02:45:07;;;;;;;1.42;1.30;;;;;;;;;;4214439;28;20060;-36
2022/03/16 02:47:08;;;;;;;1.90;1.70;;;;;;;;;;4214098;28;20105;-36
2022/03/16 02:49:09;;;;;;;1.98;1.77;;;;;;;;;;4214245;28;20216;-37
2022/03/16 02:51:10;;;;;;;2.05;1.75;;;;;;;;;;4214251;28;20128;-36
2022/03/16 02:53:11;;;;;;;2.20;1.45;;;;;;;;;;4214095;28;20052;-36
2022/03/16 02:55:13;;;;;;;1.73;1.55;;;;;;;;;;4213134;28;20047;-36
2022/03/16 02:57:16;;;;;;;2.25;1.90;;;;;;;;;;4214208;28;20056;-37
2022/03/16 02:59:17;;;;;;;1.92;1.63;;;;;;;;;;4214086;28;20499;-37
2022/03/16 03:01:17;;;;;;;1.73;1.58;;;;;;;;;;4214226;28;20096;-37
2022/03/16 03:03:18;;;;;;;2.15;1.60;;;;;;;;;;4213841;28;20044;-37
2022/03/16 03:05:20;;;;;;;1.77;1.50;;;;;;;;;;4214177;28;20388;-37
2022/03/16 03:07:21;;;;;;;2.10;1.92;;;;;;;;;;4212744;28;20451;-37
2022/03/16 03:09:21;;;;;;;2.10;1.70;;;;;;;;;;4214132;28;20090;-36
2022/03/16 03:11:22;;;;;;;2.25;1.65;;;;;;;;;;4214003;28;20085;-37
2022/03/16 03:13:24;;;;;;;1.70;1.60;;;;;;;;;;4214004;28;20349;-37
2022/03/16 03:15:25;;;;;;;1.65;1.55;;;;;;;;;;4213899;28;20504;-37
2022/03/16 03:17:26;;;;;;;1.65;1.55;;;;;;;;;;4213380;28;20050;-37
2022/03/16 03:19:27;;;;;;;1.88;1.70;;;;;;;;;;4213934;28;20098;-37
2022/03/16 03:21:27;;;;;;;1.67;1.40;;;;;;;;;;4213861;28;20124;-37
2022/03/16 03:23:29;;;;;;;1.90;1.70;;;;;;;;;;4212654;28;20047;-37
2022/03/16 03:25:29;;;;;;;2.40;1.60;;;;;;;;;;4213755;28;20075;-37
2022/03/16 03:27:32;;;;;;;1.77;1.50;;;;;;;;;;4213636;28;20673;-37
2022/03/16 03:29:32;;;;;;;1.58;1.38;;;;;;;;;;4214049;28;20110;-37
2022/03/16 03:31:34;;;;;;;1.48;1.38;;;;;;;;;;4213932;28;20468;-38
2022/03/16 03:33:35;;;;;;;2.92;2.00;;;;;;;;;;4213168;28;20047;-37
2022/03/16 03:35:36;;;;;;;1.50;1.40;;;;;;;;;;4213500;28;20094;-37
2022/03/16 03:37:37;;;;;;;1.88;1.33;;;;;;;;;;4213615;28;20093;-37
2022/03/16 03:39:37;;;;;;;2.15;1.50;;;;;;;;;;4213574;28;20376;-37
2022/03/16 03:41:38;;;;;;;1.58;1.40;;;;;;;;;;4212450;28;20086;-37
2022/03/16 03:43:39;;;;;;;1.80;1.38;;;;;;;;;;4213417;28;20047;-37
2022/03/16 03:45:40;;;;;;;1.75;1.30;;;;;;;;;;4213469;28;20105;-37
2022/03/16 03:47:41;;;;;;;1.90;1.60;;;;;;;;;;4212968;28;20094;-37
2022/03/16 03:49:43;;;;;;;2.00;1.60;;;;;;;;;;4212336;28;20108;-37
2022/03/16 03:51:44;;;;;;;1.77;1.55;;;;;;;;;;4212205;28;20117;-37
2022/03/16 03:53:44;;;;;;;1.65;1.55;;;;;;;;;;4213190;28;20044;-37
2022/03/16 03:55:45;;;;;;;1.75;1.45;;;;;;;;;;4213329;28;20056;-37
2022/03/16 03:57:46;;;;;;;1.55;1.42;;;;;;;;;;4213154;28;20158;-37
2022/03/16 03:59:47;;;;;;;1.80;1.60;;;;;;;;;;4213421;28;20131;-37
2022/03/16 04:01:48;;;;;;;1.77;1.30;;;;;;;;;;4212737;28;20156;-37
2022/03/16 04:03:50;;;;;;;1.98;1.77;;;;;;;;;;4213493;28;20044;-37
2022/03/16 04:05:50;;;;;;;1.83;1.73;;;;;;;;;;4213286;28;20392;-34
2022/03/16 04:07:51;;;;;;;1.63;1.52;;;;;;;;;;4213050;28;20098;-37
2022/03/16 04:09:53;;;;;;;1.70;1.45;;;;;;;;;;4212945;28;20082;-37
2022/03/16 04:11:54;;;;;;;1.98;1.70;;;;;;;;;;4213230;28;20051;-37
2022/03/16 04:13:55;;;;;;;1.60;1.48;;;;;;;;;;4213374;28;20552;-37
2022/03/16 04:15:56;;;;;;;1.52;1.42;;;;;;;;;;4213301;28;20487;-36
2022/03/16 04:17:56;;;;;;;1.65;1.30;;;;;;;;;;4212519;28;20139;-37
2022/03/16 04:19:57;;;;;;;1.40;1.20;;;;;;;;;;4213247;28;20056;-37
2022/03/16 04:21:58;;;;;;;1.95;1.65;;;;;;;;;;4212972;28;20048;-37
2022/03/16 04:24:00;;;;;;;1.95;1.38;;;;;;;;;;4213000;28;20134;-37
2022/03/16 04:26:01;;;;;;;2.13;1.60;;;;;;;;;;4213310;28;20059;-37
2022/03/16 04:28:02;;;;;;;2.05;1.40;;;;;;;;;;4213259;28;20058;-35
2022/03/16 04:30:04;;;;;;;1.50;1.40;;;;;;;;;;4212950;28;20376;-35
2022/03/16 04:32:05;;;;;;;1.60;1.50;;;;;;;;;;4212517;28;20121;-35
2022/03/16 04:34:06;;;;;;;1.67;1.58;;;;;;;;;;4212779;28;20074;-35
2022/03/16 04:36:07;;;;;;;2.15;1.80;;;;;;;;;;4212845;28;20093;-35
2022/03/16 04:38:08;;;;;;;1.38;1.27;;;;;;;;;;4212679;28;20090;-35
2022/03/16 04:40:09;;;;;;;1.60;1.50;;;;;;;;;;4213012;28;20052;-35
2022/03/16 04:42:10;;;;;;;1.48;1.35;;;;;;;;;;4212693;28;20094;-35
2022/03/16 04:44:11;;;;;;;2.08;1.77;;;;;;;;;;4212811;28;20411;-35
2022/03/16 04:46:12;;;;;;;1.50;1.40;;;;;;;;;;4213265;28;20051;-35
2022/03/16 04:48:13;;;;;;;1.70;1.50;;;;;;;;;;4212363;28;20060;-35
2022/03/16 04:50:14;;;;;;;1.58;1.48;;;;;;;;;;4213026;28;20546;-35
2022/03/16 04:52:15;;;;;;;1.77;1.58;;;;;;;;;;4212746;28;20396;-36
2022/03/16 04:54:16;;;;;;;1.40;1.30;;;;;;;;;;4212652;28;20092;-35
2022/03/16 04:56:17;;;;;;;1.50;1.40;;;;;;;;;;4212933;28;20098;-35
2022/03/16 04:58:18;;;;;;;1.40;1.27;;;;;;;;;;4212849;28;20044;-35
2022/03/16 05:00:19;;;;;;;2.00;1.77;;;;;;;;;;4213010;28;20048;-35
2022/03/16 05:02:20;;;;;;;1.73;1.50;;;;;;;;;;4215528;28;20050;-35
2022/03/16 05:04:21;;;;;;;2.00;1.67;;;;;;;;;;4216027;28;20087;-35
2022/03/16 05:06:22;;;;;;;1.90;1.65;;;;;;;;;;4215902;28;20090;-35
2022/03/16 05:08:23;;;;;;;1.65;1.55;;;;;;;;;;4215790;28;20403;-35
2022/03/16 05:10:24;;;;;;;1.65;1.55;;;;;;;;;;4215739;28;20047;-35
2022/03/16 05:12:25;;;;;;;1.23;1.10;;;;;;;;;;4216004;28;20056;-35
2022/03/16 05:14:26;;;;;;;1.63;1.52;;;;;;;;;;4216223;28;20442;-36
2022/03/16 05:16:26;;;;;;;1.98;1.30;;;;;;;;;;4216051;28;20059;-35
2022/03/16 05:18:27;;;;;;;1.70;1.40;;;;;;;;;;4215477;28;20128;-36
2022/03/16 05:20:28;;;;;;;1.42;1.23;;;;;;;;;;4215824;28;20115;-36
2022/03/16 05:22:29;;;;;;;1.70;1.27;;;;;;;;;;4215603;28;20058;-35
2022/03/16 05:24:30;;;;;;;2.15;1.85;;;;;;;;;;4215534;28;20048;-35
2022/03/16 05:26:31;;;;;;;2.28;1.67;;;;;;;;;;4215862;28;20063;-35
2022/03/16 05:28:33;;;;;;;2.08;1.73;;;;;;;;;;4214263;28;20055;-36
2022/03/16 05:30:33;;;;;;;1.58;1.45;;;;;;;;;;4215628;28;20056;-36
2022/03/16 05:32:35;;;;;;;1.58;1.42;;;;;;;;;;4215103;28;20074;-36
2022/03/16 05:34:36;;;;;;;2.20;1.40;;;;;;;;;;4214330;28;20387;-36
2022/03/16 05:36:36;;;;;;;1.55;1.45;;;;;;;;;;4215048;28;20095;-36
2022/03/16 05:38:37;;;;;;;1.48;1.20;;;;;;;;;;4215448;28;20105;-36
2022/03/16 05:40:39;;;;;;;1.98;1.70;;;;;;;;;;4215701;28;20482;-36
2022/03/16 05:42:40;;;;;;;1.50;1.40;;;;;;;;;;4214891;28;20483;-36
2022/03/16 05:44:41;;;;;;;1.92;1.60;;;;;;;;;;4214153;28;20052;-36
2022/03/16 05:46:42;;;;;;;1.85;1.60;;;;;;;;;;4215256;28;20052;-36
2022/03/16 05:48:42;;;;;;;1.70;1.30;;;;;;;;;;4213856;28;20151;-36
2022/03/16 05:50:45;;;;;;;2.67;1.60;;;;;;;;;;4215222;28;20121;-36
2022/03/16 05:52:46;;;;;;;1.83;1.70;;;;;;;;;;4215115;28;20411;-36
2022/03/16 05:54:48;;;;;;;1.95;1.48;;;;;;;;;;4215198;28;20102;-36
2022/03/16 05:56:49;;;;;;;1.42;1.30;;;;;;;;;;4215093;28;20051;-36
2022/03/16 05:58:50;;;;;;;1.52;1.42;;;;;;;;;;4215300;28;20073;-36
2022/03/16 06:00:51;;;;;;;1.77;1.58;;;;;;;;;;4211988;28;20142;-36
2022/03/16 06:02:52;;;;;;;1.45;1.35;;;;;;;;;;4211207;28;20082;-36
2022/03/16 06:04:53;;;;;;;1.67;1.50;;;;;;;;;;4213236;28;20120;-36
2022/03/16 06:06:54;;;;;;;1.45;1.35;;;;;;;;;;4213162;28;20055;-36
2022/03/16 06:08:55;;;;;;;1.92;1.73;;;;;;;;;;4213135;28;20185;-36
2022/03/16 06:10:55;;;;;;;1.70;1.55;;;;;;;;;;4212894;28;20092;-36
2022/03/16 06:12:57;;;;;;;2.28;2.08;;;;;;;;;;4211642;28;20047;-36
2022/03/16 06:14:58;;;;;;;2.60;1.80;;;;;;;;;;4212566;28;20048;-36
2022/03/16 06:16:59;;;;;;;2.45;2.13;;;;;;;;;;4212210;28;20058;-36
2022/03/16 06:19:00;;;;;;;2.25;2.05;;;;;;;;;;4212769;28;20044;-36
2022/03/16 06:21:01;;;;;;;2.45;2.20;;;;;;;;;;4212815;28;20100;-36
2022/03/16 06:23:05;;;;;;;2.60;2.17;;;;;;;;;;4212539;28;20048;-36
2022/03/16 06:25:06;;;;;;;2.80;2.28;;;;;;;;;;4212623;28;20048;-36
2022/03/16 06:27:07;;;;;;;3.25;2.20;;;;;;;;;;4212605;28;20083;-36
2022/03/16 06:29:08;;;;;;;2.88;2.58;;;;;;;;;;4212591;28;20142;-37
2022/03/16 06:31:08;;;;;;;2.78;2.25;;;;;;;;;;4213012;28;20396;-36
2022/03/16 06:33:09;;;;;;;3.17;2.58;;;;;;;;;;4212368;28;20628;-36
2022/03/16 06:35:11;;;;;;;3.97;2.65;;;;;;;;;;4211337;28;20097;-36
2022/03/16 06:37:12;;;;;;;3.25;2.65;;;;;;;;;;4212015;28;20445;-36
2022/03/16 06:39:13;;;;;;;3.05;2.60;;;;;;;;;;4211286;28;20101;-36
2022/03/16 06:41:14;;;;;;;2.60;2.20;;;;;;;;;;4212016;28;20074;-36
2022/03/16 06:43:15;;;;;;;2.90;2.60;;;;;;;;;;4212090;28;20093;-36
2022/03/16 06:45:16;;;;;;;3.20;2.90;;;;;;;;;;4212187;28;20603;-36
2022/03/16 06:47:17;;;;;;;2.70;2.50;;;;;;;;;;4211735;28;20121;-36
2022/03/16 06:49:18;;;;;;;2.83;2.22;;;;;;;;;;4200406;28;20114;-37
2022/03/16 06:51:19;;;;;;;2.60;2.40;;;;;;;;;;4196807;28;20530;-36
2022/03/16 06:53:20;;;;;;;3.58;2.65;;;;;;;;;;4198949;28;20050;-36
2022/03/16 06:55:21;;;;;;;3.63;2.65;;;;;;;;;;4201700;28;20091;-36
2022/03/16 06:57:22;;;;;;;3.08;2.67;;;;;;;;;;4197332;28;20094;-35
2022/03/16 06:59:23;;;;;;;3.22;2.28;;;;;;;;;;4200482;28;20597;-36
2022/03/16 07:01:24;;;;;;;4.57;2.70;;;;;;;;;;4194321;28;20109;-37
2022/03/16 07:03:25;;;;;;;3.83;2.55;;;;;;;;;;4204576;28;20124;-36
2022/03/16 07:05:33;;;;;;;3.50;2.50;;;;;;;;;;4193052;28;20075;-36
2022/03/16 07:07:34;;;;;;;3.00;2.65;;;;;;;;;;4202122;28;20056;-36
2022/03/16 07:09:35;;;;;;;3.42;2.70;;;;;;;;;;4205530;28;20131;-36
2022/03/16 07:11:36;;;;;;;4.03;2.80;;;;;;;;;;4205923;28;20116;-36
2022/03/16 07:13:38;;;;;;;4.60;2.90;;;;;;;;;;4204915;28;20056;-36
2022/03/16 07:15:43;;;;;;;3.88;2.63;;;;;;;;;;4195134;28;20047;-36
2022/03/16 07:17:45;;;;;;;3.67;2.58;;;;;;;;;;4202057;28;20109;-37
2022/03/16 07:19:46;;;;;;;3.22;2.42;;;;;;;;;;4196825;28;20199;-36
2022/03/16 07:21:47;;;;;;;3.47;2.75;;;;;;;;;;4199836;28;20056;-37
2022/03/16 07:23:48;;;;;;;3.45;2.60;;;;;;;;;;4195136;28;20083;-36
2022/03/16 07:25:50;;;;;;;3.83;2.90;;;;;;;;;;4198768;28;20098;-36
2022/03/16 07:27:50;;;;;;;3.58;2.58;;;;;;;;;;4200036;28;20452;-36
2022/03/16 07:29:51;;;;;;;3.97;2.60;;;;;;;;;;4205070;28;20084;-37
2022/03/16 07:31:52;;;;;;;3.97;2.78;;;;;;;;;;4198939;28;20146;-36
2022/03/16 07:33:53;;;;;;;5.22;2.72;;;;;;;;;;4190455;28;20290;-36
2022/03/16 07:35:54;;;;;;;5.80;2.70;;;;;;;;;;4191985;28;20093;-36
2022/03/16 07:37:56;;;;;;;4.13;2.25;;;;;;;;;;4192678;28;20084;-36
2022/03/16 07:39:57;;;;;;;4.00;2.60;;;;;;;;;;4194778;28;20040;-36
2022/03/16 07:41:57;;;;;;;7.63;2.88;;;;;;;;;;4180595;28;20062;-36
2022/03/16 07:43:59;;;;;;;6.13;2.85;;;;;;;;;;4193322;28;20131;-37
2022/03/16 07:46:00;;;;;;;5.68;2.90;;;;;;;;;;4187949;28;20058;-37
2022/03/16 07:48:01;;;;;;;3.60;2.30;;;;;;;;;;4196317;28;20181;-37
2022/03/16 07:50:02;;;;;;;6.07;2.80;;;;;;;;;;4195876;28;20052;-37
2022/03/16 07:52:03;;;;;;;4.35;2.30;;;;;;;;;;4189498;28;20064;-36
2022/03/16 07:54:04;;;;;;;3.38;2.33;;;;;;;;;;4193892;28;20921;-36
2022/03/16 07:56:05;;;;;;;5.43;2.50;;;;;;;;;;4197108;28;20179;-36
2022/03/16 07:58:06;;;;;;;2.78;2.22;;;;;;;;;;4189519;28;20048;-36
2022/03/16 08:00:10;;;;;;;4.10;2.40;;;;;;;;;;4186159;28;21216;-36
2022/03/16 08:02:15;;;;;;;5.43;2.80;;;;;;;;;;4188962;28;20045;-36
2022/03/16 08:04:16;;;;;;;2.92;2.40;;;;;;;;;;4193525;28;20109;-36
2022/03/16 08:06:17;;;;;;;3.08;2.47;;;;;;;;;;4190999;28;20060;-36
2022/03/16 08:08:18;;;;;;;4.93;2.65;;;;;;;;;;4193508;28;20089;-36
2022/03/16 08:10:20;;;;;;;3.17;2.40;;;;;;;;;;4193158;28;20060;-36
2022/03/16 08:12:21;;;;;;;4.95;2.75;;;;;;;;;;4192777;28;20105;-36
2022/03/16 08:14:21;;;;;;;9.77;2.42;;;;;;;;;;4191549;28;20471;-36
2022/03/16 08:16:23;;;;;;;5.30;2.80;;;;;;;;;;4193953;28;20143;-36
2022/03/16 08:18:24;;;;;;;3.60;2.90;;;;;;;;;;4189096;28;20112;-36
2022/03/16 08:20:25;;;;;;;2.90;2.22;;;;;;;;;;4197611;28;20059;-36
2022/03/16 08:22:30;;;;;;;2.63;2.28;;;;;;;;;;4193426;28;20550;-36
2022/03/16 08:24:31;;;;;;;2.90;2.60;;;;;;;;;;4190815;28;20052;-37
2022/03/16 08:26:32;;;;;;;4.80;2.33;;;;;;;;;;4193048;28;20055;-37
2022/03/16 08:28:33;;;;;;;4.88;2.85;;;;;;;;;;4196293;28;20554;-36
2022/03/16 08:30:35;;;;;;;4.18;2.60;;;;;;;;;;4189515;28;20406;-37
2022/03/16 08:32:36;;;;;;;8.10;2.45;;;;;;;;;;4189263;28;20044;-37
2022/03/16 08:34:37;;;;;;;3.60;2.85;;;;;;;;;;4194545;28;20044;-38
2022/03/16 08:36:39;;;;;;;5.05;2.88;;;;;;;;;;4186049;28;20113;-36
2022/03/16 08:38:41;;;;;;;3.47;2.40;;;;;;;;;;4194012;28;20569;-36
2022/03/16 08:40:42;;;;;;;4.07;2.45;;;;;;;;;;4193155;28;20047;-36
2022/03/16 08:42:43;;;;;;;2.72;2.25;;;;;;;;;;4193039;28;20063;-36
2022/03/16 08:44:45;;;;;;;3.97;2.45;;;;;;;;;;4192845;28;20109;-36
2022/03/16 08:46:46;;;;;;;4.55;2.65;;;;;;;;;;4192085;28;20052;-36
2022/03/16 08:48:47;;;;;;;4.47;2.50;;;;;;;;;;4193648;28;20055;-36
2022/03/16 08:50:48;;;;;;;4.07;2.97;;;;;;;;;;4190249;28;20151;-36
2022/03/16 08:52:49;;;;;;;4.93;2.95;;;;;;;;;;4189485;28;20120;-36
2022/03/16 08:54:50;;;;;;;3.50;2.70;;;;;;;;;;4186822;28;20056;-36
2022/03/16 08:56:52;;;;;;;5.38;2.95;;;;;;;;;;4187893;28;20108;-35
2022/03/16 08:58:53;;;;;;;4.30;2.88;;;;;;;;;;4189525;28;20200;-35
2022/03/16 09:00:54;;;;;;;7.70;3.45;;;;;;;;;;4190760;28;21045;-36
2022/03/16 09:02:56;;;;;;;3.63;2.75;;;;;;;;;;4193629;28;20371;-36
2022/03/16 09:04:57;;;;;;;3.00;2.67;;;;;;;;;;4194358;28;20052;-35
2022/03/16 09:06:58;;;;;;;4.20;3.38;;;;;;;;;;4191493;28;20071;-36
2022/03/16 09:08:59;;;;;;;3.63;2.75;;;;;;;;;;4188546;28;20090;-36
2022/03/16 09:11:01;;;;;;;4.05;3.25;;;;;;;;;;4188778;28;20101;-38
2022/03/16 09:13:04;;;;;;;4.93;2.67;;;;;;;;;;4187458;28;20052;-36
2022/03/16 09:15:05;;;;;;;5.28;3.10;;;;;;;;;;4188594;28;20141;-36
2022/03/16 09:17:07;;;;;;;3.92;2.60;;;;;;;;;;4191981;28;20116;-36
2022/03/16 09:19:08;;;;;;;5.40;3.30;;;;;;;;;;4188011;28;20052;-37
2022/03/16 09:21:09;;;;;;;5.65;2.97;;;;;;;;;;4187209;28;20086;-36
2022/03/16 09:23:10;;;;;;;3.72;2.72;;;;;;;;;;4186950;28;20177;-36
2022/03/16 09:25:12;;;;;;;3.53;2.67;;;;;;;;;;4184060;28;20108;-36
2022/03/16 09:27:14;;;;;;;4.40;2.40;;;;;;;;;;4180259;28;20342;-36
2022/03/16 09:29:16;;;;;;;6.38;2.97;;;;;;;;;;4184943;28;20052;-36
2022/03/16 09:31:17;;;;;;;3.60;2.85;;;;;;;;;;4184217;28;20541;-36
2022/03/16 09:33:18;;;;;;;5.80;2.80;;;;;;;;;;4186572;28;20056;-35
2022/03/16 09:35:19;;;;;;;5.80;2.67;;;;;;;;;;4183924;28;20558;-36
2022/03/16 09:37:20;;;;;;;4.95;2.78;;;;;;;;;;4181107;28;20122;-36
2022/03/16 09:39:21;;;;;;;4.70;2.88;;;;;;;;;;4181647;28;20078;-36
2022/03/16 09:41:22;;;;;;;4.28;2.80;;;;;;;;;;4184771;28;20099;-36
2022/03/16 09:43:23;;;;;;;3.47;2.60;;;;;;;;;;4184255;28;20156;-36
2022/03/16 09:45:27;;;;;;;3.58;2.67;;;;;;;;;;4184337;28;20063;-37
2022/03/16 09:47:29;;;;;;;8.40;3.25;;;;;;;;;;4181444;28;20513;-36
2022/03/16 09:49:30;;;;;;;4.78;2.55;;;;;;;;;;4186216;28;20401;-36
2022/03/16 09:51:35;;;;;;;5.60;2.72;;;;;;;;;;4190595;28;20097;-36
2022/03/16 09:53:36;;;;;;;4.63;2.60;;;;;;;;;;4191531;28;20048;-36
2022/03/16 09:55:37;;;;;;;3.17;2.47;;;;;;;;;;4189587;28;20585;-37
2022/03/16 09:57:38;;;;;;;3.47;2.35;;;;;;;;;;4189248;28;20083;-36
2022/03/16 09:59:39;;;;;;;5.65;2.65;;;;;;;;;;4183006;28;20440;-36
2022/03/16 10:01:43;;;;;;;3.53;2.60;;;;;;;;;;4177290;28;20059;-36
2022/03/16 10:03:48;;;;;;;4.45;2.60;;;;;;;;;;4181314;28;20185;-36
2022/03/16 10:05:50;;;;;;;2.72;2.03;;;;;;;;;;4189135;28;20427;-36
2022/03/16 10:07:53;;;;;;;3.63;2.55;;;;;;;;;;4190806;28;20056;-36
2022/03/16 10:14:37;;;;;;;2.83;2.30;;;;;;;;;;4187899;28;20537;-37
2022/03/16 10:19:31;;;;;;;4.30;2.50;;;;;;;;;;4178530;28;20133;-36
2022/03/16 10:21:32;;;;;;;3.28;2.50;;;;;;;;;;4184578;28;20502;-36
2022/03/16 10:23:34;;;;;;;3.97;2.38;;;;;;;;;;4187933;28;20092;-35
2022/03/16 10:25:36;;;;;;;4.50;2.38;;;;;;;;;;4187936;28;20149;-36
2022/03/16 10:27:37;;;;;;;4.93;2.60;;;;;;;;;;4185025;28;20892;-36
2022/03/16 10:29:38;;;;;;;4.97;2.50;;;;;;;;;;4180037;28;20302;-36
2022/03/16 10:31:39;;;;;;;3.88;2.35;;;;;;;;;;4188008;28;20478;-37
2022/03/16 10:34:01;;;;;;;5.50;2.83;;;;;;;;;;4187071;28;20060;-36
2022/03/16 10:36:04;;;;;;;3.35;2.30;;;;;;;;;;4186018;28;20102;-36
2022/03/16 10:38:10;;;;;;;3.88;2.15;;;;;;;;;;4189636;28;20687;-36
2022/03/16 10:40:17;;;;;;;3.70;2.67;;;;;;;;;;4190516;28;20084;-36
2022/03/16 10:47:00;;;;;;;4.07;2.42;;;;;;;;;;4190313;28;20044;-36
2022/03/16 10:49:06;;;;;;;4.90;2.13;;;;;;;;;;4189102;28;20109;-36
2022/03/16 10:51:06;;;;;;;3.47;2.60;;;;;;;;;;4188562;28;20051;-36
2022/03/16 10:53:09;;;;;;;4.25;2.78;;;;;;;;;;4182919;28;20048;-36
2022/03/16 10:55:12;;;;;;;3.22;2.47;;;;;;;;;;4185194;28;20410;-35
2022/03/16 10:57:13;;;;;;;3.42;2.08;;;;;;;;;;4174444;28;20094;-36
2022/03/16 10:59:14;;;;;;;3.45;3.15;;;;;;;;;;4185792;28;20102;-36
2022/03/16 11:01:15;;;;;;;3.60;2.50;;;;;;;;;;4185936;28;20047;-36
2022/03/16 11:03:18;;;;;;;3.63;2.50;;;;;;;;;;4189380;28;20447;-36
2022/03/16 11:05:20;;;;;;;4.97;2.53;;;;;;;;;;4187871;28;20056;-36
2022/03/16 11:07:21;;;;;;;3.85;2.50;;;;;;;;;;4184801;28;20103;-36
2022/03/16 11:09:23;;;;;;;3.85;2.60;;;;;;;;;;4193269;28;20474;-36
2022/03/16 11:13:45;;;;;;;2.70;2.22;;;;;;;;;;4177736;28;20101;-37
2022/03/16 11:15:47;;;;;;;3.63;2.60;;;;;;;;;;4184054;28;20219;-38
2022/03/16 11:17:51;;;;;;;3.00;2.17;;;;;;;;;;4182283;28;20056;-37
2022/03/16 11:19:52;;;;;;;2.90;2.60;;;;;;;;;;4186487;28;20248;-36
2022/03/16 11:21:59;;;;;;;4.47;2.75;;;;;;;;;;4193473;28;20120;-37
2022/03/16 11:24:16;;;;;;;3.10;2.75;;;;;;;;;;4186238;28;20044;-37
2022/03/16 11:26:23;;;;;;;4.13;2.53;;;;;;;;;;4195919;28;20056;-37
2022/03/16 11:28:38;;;;;;;3.95;2.50;;;;;;;;;;4192725;28;20196;-38
2022/03/16 11:30:39;;;;;;;6.22;2.90;;;;;;;;;;4185940;28;20058;-37
2022/03/16 11:32:41;;;;;;;4.38;2.28;;;;;;;;;;4192222;28;20079;-39
2022/03/16 11:34:54;;;;;;;3.25;2.80;;;;;;;;;;4194030;28;20498;-37
2022/03/16 11:37:02;;;;;;;3.65;2.63;;;;;;;;;;4189294;28;20101;-37
2022/03/16 11:39:15;;;;;;;2.80;2.40;;;;;;;;;;4193266;28;20051;-37
2022/03/16 11:41:23;;;;;;;3.15;2.40;;;;;;;;;;4188975;28;20388;-37
2022/03/16 11:43:25;;;;;;;3.38;2.42;;;;;;;;;;4180351;28;20528;-37
2022/03/16 11:45:30;;;;;;;3.28;2.50;;;;;;;;;;4186685;28;20559;-37
2022/03/16 11:47:32;;;;;;;2.97;2.55;;;;;;;;;;4188847;28;20062;-37
2022/03/16 11:49:33;;;;;;;2.92;2.53;;;;;;;;;;4192152;28;20101;-36
2022/03/16 11:51:34;;;;;;;3.65;2.92;;;;;;;;;;4194833;28;20134;-37
2022/03/16 11:53:48;;;;;;;3.38;2.95;;;;;;;;;;4186131;28;20055;-36
2022/03/16 11:55:50;;;;;;;5.05;2.42;;;;;;;;;;4183156;28;20562;-36
2022/03/16 11:57:52;;;;;;;5.15;2.80;;;;;;;;;;4184717;28;20052;-36
2022/03/16 11:59:58;;;;;;;2.78;2.47;;;;;;;;;;4181618;28;20048;-36
2022/03/16 12:02:07;;;;;;;3.42;2.50;;;;;;;;;;4182641;28;20519;-37
2022/03/16 12:04:19;;;;;;;3.53;2.55;;;;;;;;;;4190194;28;20040;-37
2022/03/16 12:06:20;;;;;;;3.25;2.72;;;;;;;;;;4181530;28;20048;-37
2022/03/16 12:08:22;;;;;;;4.57;3.00;;;;;;;;;;4193157;28;20402;-36
2022/03/16 12:10:23;;;;;;;4.18;2.85;;;;;;;;;;4180837;28;20059;-36
2022/03/16 12:14:57;;;;;;;2.90;2.35;;;;;;;;;;4183682;28;20099;-37
2022/03/16 12:17:14;;;;;;;3.25;2.95;;;;;;;;;;4185327;28;20209;-38
2022/03/16 12:19:29;;;;;;;3.75;3.20;;;;;;;;;;4190663;28;20131;-39
2022/03/16 12:21:33;;;;;;;3.28;2.97;;;;;;;;;;4180709;28;20561;-38
2022/03/16 12:23:47;;;;;;;3.38;2.85;;;;;;;;;;4179743;28;20052;-36
2022/03/16 12:25:49;;;;;;;3.40;3.10;;;;;;;;;;4185154;28;20495;-38
2022/03/16 12:30:10;;;;;;;4.28;3.28;;;;;;;;;;4178492;28;20149;-38